createdAt,value
2022-08-08T00:01:06.519Z,19.80
2022-08-08T00:03:48.103Z,19.75
2022-08-08T00:06:28.644Z,19.71
2022-08-08T00:09:12.229Z,19.73
2022-08-08T00:11:46.704Z,19.70
2022-08-08T00:14:56.833Z,19.68
2022-08-08T00:18:01.610Z,19.66
2022-08-08T00:20:37.418Z,19.62
2022-08-08T00:23:08.173Z,19.59
2022-08-08T00:25:46.228Z,19.54
2022-08-08T00:28:35.955Z,19.52
2022-08-08T00:32:21.406Z,19.47
2022-08-08T00:34:20.056Z,19.43
2022-08-08T00:36:54.773Z,19.44
2022-08-08T00:41:07.077Z,19.41
2022-08-08T00:42:42.099Z,19.29
2022-08-08T00:45:42.598Z,19.37
2022-08-08T00:48:33.800Z,19.34
2022-08-08T00:51:38.294Z,19.31
2022-08-08T00:54:55.068Z,19.33
2022-08-08T00:58:13.871Z,19.27
2022-08-08T01:00:50.581Z,19.24
2022-08-08T01:04:02.672Z,19.23
2022-08-08T01:07:10.682Z,19.21
2022-08-08T01:10:26.366Z,19.23
2022-08-08T01:13:14.979Z,19.20
2022-08-08T01:16:00.241Z,19.18
2022-08-08T01:19:13.509Z,19.14
2022-08-08T01:22:23.618Z,19.10
2022-08-08T01:25:40.811Z,19.09
2022-08-08T01:28:28.169Z,19.04
2022-08-08T01:32:05.201Z,19.05
2022-08-08T01:34:44.874Z,19.03
2022-08-08T01:37:59.059Z,19.02
2022-08-08T01:40:29.361Z,18.98
2022-08-08T01:43:05.034Z,18.96
2022-08-08T01:45:56.071Z,18.95
2022-08-08T01:48:36.362Z,18.94
2022-08-08T01:51:30.060Z,18.91
2022-08-08T01:55:45.100Z,18.89
2022-08-08T01:57:17.300Z,18.88
2022-08-08T02:00:12.901Z,18.85
2022-08-08T02:02:57.282Z,18.81
2022-08-08T02:05:55.534Z,18.76
2022-08-08T02:08:33.899Z,18.74
2022-08-08T02:11:07.290Z,18.67
2022-08-08T02:13:56.123Z,18.67
2022-08-08T02:16:28.497Z,18.60
2022-08-08T02:19:09.968Z,18.62
2022-08-08T02:22:13.581Z,18.61
2022-08-08T02:24:51.728Z,18.58
2022-08-08T02:27:20.610Z,18.58
2022-08-08T02:30:04.369Z,18.57
2022-08-08T02:32:46.741Z,18.54
2022-08-08T02:36:03.374Z,18.49
2022-08-08T02:38:55.281Z,18.42
2022-08-08T02:42:04.661Z,18.38
2022-08-08T02:45:18.557Z,18.30
2022-08-08T02:48:25.743Z,18.27
2022-08-08T02:51:55.482Z,18.28
2022-08-08T02:55:04.517Z,18.27
2022-08-08T02:58:10.270Z,18.22
2022-08-08T03:01:14.899Z,18.21
2022-08-08T03:05:03.068Z,18.20
2022-08-08T03:08:01.638Z,18.15
2022-08-08T03:10:53.811Z,18.17
2022-08-08T03:16:02.467Z,18.14
2022-08-08T03:16:38.893Z,18.13
2022-08-08T03:19:51.345Z,18.07
2022-08-08T03:22:48.113Z,18.06
2022-08-08T03:25:17.803Z,18.04
2022-08-08T03:27:57.043Z,18.05
2022-08-08T03:30:25.932Z,18.04
2022-08-08T03:33:56.042Z,18.00
2022-08-08T03:35:59.873Z,17.99
2022-08-08T03:38:57.987Z,17.98
2022-08-08T03:42:11.962Z,17.97
2022-08-08T03:44:06.315Z,17.92
2022-08-08T03:46:44.668Z,17.85
2022-08-08T03:49:58.078Z,17.76
2022-08-08T03:52:07.543Z,17.68
2022-08-08T03:55:02.145Z,17.63
2022-08-08T03:58:31.720Z,17.56
2022-08-08T04:00:21.957Z,17.50
2022-08-08T04:02:59.445Z,17.47
2022-08-08T04:05:29.351Z,17.45
2022-08-08T04:07:58.125Z,17.42
2022-08-08T04:10:32.345Z,17.40
2022-08-08T04:13:17.347Z,17.39
2022-08-08T04:15:54.725Z,17.40
2022-08-08T04:18:32.266Z,17.40
2022-08-08T04:21:00.107Z,17.38
2022-08-08T04:23:33.414Z,17.32
2022-08-08T04:26:16.694Z,17.32
2022-08-08T04:28:48.624Z,17.35
2022-08-08T04:31:30.707Z,17.32
2022-08-08T04:34:10.044Z,17.32
2022-08-08T04:36:37.973Z,17.32
2022-08-08T04:39:48.088Z,17.34
2022-08-08T04:41:53.613Z,17.34
2022-08-08T04:44:26.714Z,17.35
2022-08-08T04:46:55.151Z,17.37
2022-08-08T04:49:28.842Z,17.41
2022-08-08T04:52:13.477Z,17.43
2022-08-08T04:54:42.580Z,17.47
2022-08-08T04:57:10.543Z,17.46
2022-08-08T04:59:42.474Z,17.44
2022-08-08T05:02:13.755Z,17.45
2022-08-08T05:04:44.296Z,17.47
2022-08-08T05:07:14.821Z,17.47
2022-08-08T05:09:43.199Z,17.49
2022-08-08T05:12:20.667Z,17.50
2022-08-08T05:14:52.312Z,17.51
2022-08-08T05:17:21.030Z,17.54
2022-08-08T05:20:10.417Z,17.52
2022-08-08T05:22:37.076Z,17.59
2022-08-08T05:25:05.376Z,17.62
2022-08-08T05:27:41.064Z,17.64
2022-08-08T05:30:12.226Z,17.64
2022-08-08T05:32:40.562Z,17.64
2022-08-08T05:35:13.595Z,17.69
2022-08-08T05:37:53.224Z,17.72
2022-08-08T05:40:28.149Z,17.75
2022-08-08T05:43:02.130Z,17.75
2022-08-08T05:45:43.195Z,17.82
2022-08-08T05:48:28.324Z,17.81
2022-08-08T05:51:14.794Z,17.90
2022-08-08T05:54:25.841Z,17.94
2022-08-08T05:56:37.371Z,17.96
2022-08-08T05:59:12.513Z,17.98
2022-08-08T06:01:55.388Z,17.98
2022-08-08T06:04:27.133Z,18.01
2022-08-08T06:07:00.574Z,18.04
2022-08-08T06:10:00.532Z,18.08
2022-08-08T06:12:30.341Z,18.13
2022-08-08T06:14:59.443Z,18.15
2022-08-08T06:17:32.118Z,18.17
2022-08-08T06:20:16.622Z,18.24
2022-08-08T06:22:47.383Z,18.25
2022-08-08T06:25:18.147Z,18.27
2022-08-08T06:27:48.852Z,18.28
2022-08-08T06:30:20.334Z,18.31
2022-08-08T06:33:01.330Z,18.37
2022-08-08T06:36:08.192Z,18.39
2022-08-08T06:38:21.349Z,18.47
2022-08-08T06:40:59.218Z,18.45
2022-08-08T06:43:30.694Z,18.50
2022-08-08T06:46:02.784Z,18.53
2022-08-08T06:48:32.307Z,18.56
2022-08-08T06:52:36.528Z,18.69
2022-08-08T06:55:11.240Z,18.71
2022-08-08T06:57:54.879Z,18.74
2022-08-08T07:00:30.345Z,18.79
2022-08-08T07:03:01.538Z,18.83
2022-08-08T07:05:40.172Z,18.89
2022-08-08T07:08:16.429Z,18.93
2022-08-08T07:10:48.816Z,18.95
2022-08-08T07:13:18.703Z,19.00
2022-08-08T07:16:05.351Z,19.05
2022-08-08T07:18:43.889Z,19.14
2022-08-08T07:21:20.391Z,19.17
2022-08-08T07:24:00.907Z,19.24
2022-08-08T07:26:35.376Z,19.24
2022-08-08T07:29:05.904Z,19.34
2022-08-08T07:31:36.814Z,19.36
2022-08-08T07:34:09.237Z,19.38
2022-08-08T07:36:37.325Z,19.39
2022-08-08T07:39:13.378Z,19.40
2022-08-08T07:42:03.555Z,19.39
2022-08-08T07:44:36.954Z,19.45
2022-08-08T07:47:08.836Z,19.52
2022-08-08T07:49:39.922Z,19.53
2022-08-08T07:52:13.333Z,19.63
2022-08-08T07:54:58.811Z,19.68
2022-08-08T07:57:36.158Z,19.75
2022-08-08T08:00:13.468Z,19.79
2022-08-08T08:02:45.857Z,19.82
2022-08-08T08:05:19.823Z,19.79
2022-08-08T08:07:54.586Z,19.90
2022-08-08T08:10:30.390Z,19.95
2022-08-08T08:13:25.595Z,19.97
2022-08-08T08:16:12.443Z,20.02
2022-08-08T08:18:51.624Z,20.04
2022-08-08T08:21:20.623Z,20.03
2022-08-08T08:24:08.885Z,20.06
2022-08-08T08:26:39.787Z,20.08
2022-08-08T08:29:20.164Z,20.13
2022-08-08T08:31:57.877Z,20.17
2022-08-08T08:34:31.948Z,20.17
2022-08-08T08:37:07.592Z,20.19
2022-08-08T08:40:00.205Z,20.19
2022-08-08T08:42:31.947Z,20.23
2022-08-08T08:45:21.495Z,20.32
2022-08-08T08:47:54.321Z,20.35
2022-08-08T08:50:32.448Z,20.37
2022-08-08T08:53:04.734Z,20.42
2022-08-08T08:55:39.310Z,20.46
2022-08-08T08:58:09.918Z,20.51
2022-08-08T09:00:56.205Z,20.57
2022-08-08T09:03:45.932Z,20.62
2022-08-08T09:06:28.215Z,20.67
2022-08-08T09:09:04.888Z,20.72
2022-08-08T09:11:35.318Z,20.74
2022-08-08T09:14:17.703Z,20.77
2022-08-08T09:16:45.816Z,20.78
2022-08-08T09:19:29.136Z,20.82
2022-08-08T09:22:06.704Z,20.87
2022-08-08T09:24:35.689Z,20.93
2022-08-08T09:27:14.739Z,21.03
2022-08-08T09:29:52.869Z,21.12
2022-08-08T09:32:37.030Z,21.18
2022-08-08T09:35:08.600Z,21.21
2022-08-08T09:38:01.874Z,21.20
2022-08-08T09:40:46.428Z,21.23
2022-08-08T09:43:40.843Z,21.26
2022-08-08T09:46:25.576Z,21.33
2022-08-08T09:49:18.544Z,21.38
2022-08-08T09:52:07.127Z,21.43
2022-08-08T09:54:44.082Z,21.45
2022-08-08T09:57:16.520Z,21.47
2022-08-08T09:59:57.172Z,21.46
2022-08-08T10:02:37.366Z,21.48
2022-08-08T10:05:15.043Z,21.46
2022-08-08T10:07:59.987Z,21.54
2022-08-08T10:10:31.497Z,21.55
2022-08-08T10:13:13.865Z,21.63
2022-08-08T10:16:00.687Z,21.65
2022-08-08T10:18:33.564Z,21.69
2022-08-08T10:21:23.285Z,21.69
2022-08-08T10:23:58.348Z,21.62
2022-08-08T10:26:58.616Z,21.59
2022-08-08T10:29:24.974Z,21.56
2022-08-08T10:32:16.053Z,21.61
2022-08-08T10:34:57.158Z,21.68
2022-08-08T10:37:30.257Z,21.76
2022-08-08T10:39:59.713Z,21.83
2022-08-08T10:42:35.483Z,21.89
2022-08-08T10:45:09.252Z,22.01
2022-08-08T10:47:43.843Z,22.08
2022-08-08T10:50:17.412Z,22.15
2022-08-08T10:52:45.333Z,22.18
2022-08-08T10:55:39.791Z,22.27
2022-08-08T10:58:08.232Z,22.28
2022-08-08T11:00:52.383Z,22.29
2022-08-08T11:03:36.983Z,22.25
2022-08-08T11:06:17.336Z,22.22
2022-08-08T11:08:53.620Z,22.17
2022-08-08T11:11:59.748Z,22.13
2022-08-08T11:14:12.291Z,22.13
2022-08-08T11:16:46.856Z,22.11
2022-08-08T11:19:17.100Z,22.15
2022-08-08T11:21:56.299Z,22.16
2022-08-08T11:24:26.961Z,22.15
2022-08-08T11:26:57.878Z,22.13
2022-08-08T11:29:41.408Z,22.14
2022-08-08T11:32:16.461Z,22.16
2022-08-08T11:35:08.856Z,22.15
2022-08-08T11:38:35.227Z,22.15
2022-08-08T11:40:26.527Z,22.18
2022-08-08T11:42:55.761Z,22.15
2022-08-08T11:45:23.975Z,22.20
2022-08-08T11:48:02.566Z,22.27
2022-08-08T11:50:34.287Z,22.29
2022-08-08T11:53:06.022Z,22.29
2022-08-08T11:55:36.529Z,22.30
2022-08-08T11:58:15.047Z,22.33
2022-08-08T12:00:47.331Z,22.40
2022-08-08T12:03:20.889Z,22.50
2022-08-08T12:05:48.946Z,22.71
2022-08-08T12:08:18.976Z,22.94
2022-08-08T12:10:48.030Z,23.21
2022-08-08T12:13:17.453Z,23.43
2022-08-08T12:15:49.156Z,23.49
2022-08-08T12:18:21.358Z,23.47
2022-08-08T12:20:53.297Z,23.36
2022-08-08T12:23:44.059Z,23.23
2022-08-08T12:26:28.485Z,23.11
2022-08-08T12:29:21.448Z,23.03
2022-08-08T12:31:53.551Z,22.98
2022-08-08T12:34:37.425Z,22.96
2022-08-08T12:37:08.276Z,22.92
2022-08-08T12:40:01.973Z,22.88
2022-08-08T12:42:27.322Z,22.85
2022-08-08T12:45:54.973Z,22.84
2022-08-08T12:48:10.601Z,22.87
2022-08-08T12:50:49.391Z,23.00
2022-08-08T12:53:24.847Z,23.21
2022-08-08T12:56:19.449Z,23.45
2022-08-08T12:58:54.613Z,23.55
2022-08-08T13:01:34.960Z,23.54
2022-08-08T13:04:18.322Z,23.46
2022-08-08T13:07:05.301Z,23.36
2022-08-08T13:10:00.699Z,23.32
2022-08-08T13:12:29.867Z,23.26
2022-08-08T13:14:58.711Z,23.28
2022-08-08T13:18:08.298Z,23.39
2022-08-08T13:20:17.402Z,23.45
2022-08-08T13:22:46.123Z,23.46
2022-08-08T13:25:18.859Z,23.53
2022-08-08T13:27:54.555Z,23.67
2022-08-08T13:30:26.383Z,23.76
2022-08-08T13:32:56.503Z,23.81
2022-08-08T13:35:29.621Z,23.77
2022-08-08T13:38:12.944Z,23.82
2022-08-08T13:40:44.637Z,23.92
2022-08-08T13:43:16.027Z,23.93
2022-08-08T13:45:47.189Z,23.90
2022-08-08T13:48:16.968Z,23.79
2022-08-08T13:50:52.397Z,23.75
2022-08-08T13:53:34.186Z,23.71
2022-08-08T13:56:11.830Z,23.71
2022-08-08T13:58:57.407Z,23.72
2022-08-08T14:01:41.866Z,23.68
2022-08-08T14:04:22.384Z,23.69
2022-08-08T14:06:50.951Z,23.74
2022-08-08T14:09:29.570Z,23.90
2022-08-08T14:11:58.873Z,24.17
2022-08-08T14:14:37.705Z,24.32
2022-08-08T14:17:11.724Z,24.29
2022-08-08T14:19:57.839Z,24.21
2022-08-08T14:22:38.338Z,24.13
2022-08-08T14:25:15.363Z,24.04
2022-08-08T14:27:59.785Z,23.95
2022-08-08T14:30:34.830Z,23.87
2022-08-08T14:33:02.877Z,23.83
2022-08-08T14:35:41.652Z,23.83
2022-08-08T14:38:34.421Z,23.88
2022-08-08T14:40:59.917Z,24.02
2022-08-08T14:44:10.294Z,24.12
2022-08-08T14:46:22.319Z,24.15
2022-08-08T14:49:09.393Z,24.12
2022-08-08T14:51:53.193Z,24.06
2022-08-08T14:54:28.726Z,24.02
2022-08-08T14:56:58.414Z,23.97
2022-08-08T14:59:43.688Z,23.93
2022-08-08T15:02:14.088Z,23.88
2022-08-08T15:04:43.476Z,23.84
2022-08-08T15:07:24.239Z,23.83
2022-08-08T15:10:00.944Z,23.82
2022-08-08T15:12:28.662Z,23.82
2022-08-08T15:14:57.895Z,23.82
2022-08-08T15:17:25.893Z,23.82
2022-08-08T15:19:54.287Z,23.83
2022-08-08T15:22:23.752Z,23.84
2022-08-08T15:24:51.726Z,23.87
2022-08-08T15:27:57.841Z,24.00
2022-08-08T15:30:12.540Z,24.09
2022-08-08T15:32:44.950Z,24.16
2022-08-08T15:35:13.054Z,24.22
2022-08-08T15:37:44.040Z,24.29
2022-08-08T15:40:15.083Z,24.36
2022-08-08T15:42:47.583Z,24.44
2022-08-08T15:45:23.078Z,24.48
2022-08-08T15:48:15.130Z,24.52
2022-08-08T15:51:01.197Z,24.54
2022-08-08T15:53:33.247Z,24.58
2022-08-08T15:56:17.185Z,24.62
2022-08-08T15:58:50.232Z,24.64
2022-08-08T16:02:00.599Z,24.59
2022-08-08T16:04:29.693Z,24.61
2022-08-08T16:06:57.683Z,24.58
2022-08-08T16:13:03.639Z,24.52
2022-08-08T16:13:04.077Z,24.55
2022-08-08T16:15:04.983Z,24.61
2022-08-08T16:17:38.934Z,24.69
2022-08-08T16:20:22.038Z,24.72
2022-08-08T16:22:52.153Z,24.82
2022-08-08T16:25:20.334Z,24.83
2022-08-08T16:27:57.774Z,24.77
2022-08-08T16:30:36.472Z,24.67
2022-08-08T16:33:06.034Z,24.53
2022-08-08T16:35:37.141Z,24.46
2022-08-08T16:38:04.812Z,24.39
2022-08-08T16:40:38.128Z,24.33
2022-08-08T16:43:08.461Z,24.23
2022-08-08T16:46:44.743Z,24.17
2022-08-08T16:48:26.416Z,24.08
2022-08-08T16:51:02.650Z,23.99
2022-08-08T16:55:18.389Z,23.99
2022-08-08T16:56:18.507Z,23.97
2022-08-08T16:58:49.959Z,23.91
2022-08-08T17:01:17.803Z,23.85
2022-08-08T17:03:59.505Z,23.83
2022-08-08T17:06:37.305Z,23.81
2022-08-08T17:09:14.874Z,23.81
2022-08-08T17:11:48.764Z,23.78
2022-08-08T17:14:27.517Z,23.80
2022-08-08T17:17:03.073Z,23.84
2022-08-08T17:19:40.837Z,23.88
2022-08-08T17:22:10.008Z,23.91
2022-08-08T17:24:37.737Z,23.92
2022-08-08T17:27:07.517Z,23.92
2022-08-08T17:29:36.256Z,23.93
2022-08-08T17:32:05.904Z,23.92
2022-08-08T17:34:59.731Z,23.85
2022-08-08T17:37:27.815Z,23.84
2022-08-08T17:40:10.477Z,23.82
2022-08-08T17:42:47.205Z,23.80
2022-08-08T17:45:23.572Z,23.79
2022-08-08T17:47:52.293Z,23.77
2022-08-08T17:50:24.681Z,23.76
2022-08-08T17:52:53.394Z,23.72
2022-08-08T17:56:05.013Z,23.69
2022-08-08T17:58:12.319Z,23.68
2022-08-08T18:00:41.508Z,23.73
2022-08-08T18:03:13.121Z,23.73
2022-08-08T18:05:44.091Z,23.71
2022-08-08T18:08:37.813Z,23.65
2022-08-08T18:11:11.554Z,23.63
2022-08-08T18:13:42.699Z,23.64
2022-08-08T18:16:11.410Z,23.62
2022-08-08T18:18:42.689Z,23.64
2022-08-08T18:21:25.150Z,23.62
2022-08-08T18:24:03.442Z,23.54
2022-08-08T18:26:31.248Z,23.47
2022-08-08T18:29:01.675Z,23.43
2022-08-08T18:31:29.509Z,23.39
2022-08-08T18:34:12.331Z,23.34
2022-08-08T18:36:47.644Z,23.28
2022-08-08T18:39:16.615Z,23.25
2022-08-08T18:42:02.827Z,23.20
2022-08-08T18:44:33.016Z,23.19
2022-08-08T18:47:05.137Z,23.14
2022-08-08T18:49:41.019Z,23.11
2022-08-08T18:52:26.200Z,23.07
2022-08-08T18:55:00.953Z,23.01
2022-08-08T18:57:42.075Z,22.99
2022-08-08T19:00:16.802Z,22.98
2022-08-08T19:02:56.715Z,22.96
2022-08-08T19:05:31.965Z,22.94
2022-08-08T19:08:09.518Z,22.88
2022-08-08T19:10:37.467Z,22.84
2022-08-08T19:13:20.734Z,22.85
2022-08-08T19:15:51.889Z,22.81
2022-08-08T19:18:30.733Z,22.75
2022-08-08T19:21:01.441Z,22.72
2022-08-08T19:23:30.486Z,22.69
2022-08-08T19:26:29.701Z,22.67
2022-08-08T19:28:50.855Z,22.64
2022-08-08T19:31:19.862Z,22.64
2022-08-08T19:34:04.394Z,22.58
2022-08-08T19:36:40.035Z,22.57
2022-08-08T19:39:14.630Z,22.52
2022-08-08T19:41:42.841Z,22.50
2022-08-08T19:44:12.876Z,22.47
2022-08-08T19:46:54.204Z,22.45
2022-08-08T19:49:24.443Z,22.43
2022-08-08T19:51:53.910Z,22.41
2022-08-08T19:54:23.022Z,22.39
2022-08-08T19:56:50.683Z,22.37
2022-08-08T19:59:22.568Z,22.35
2022-08-08T20:02:03.052Z,22.32
2022-08-08T20:04:31.923Z,22.27
2022-08-08T20:07:05.407Z,22.25
2022-08-08T20:09:55.767Z,22.21
2022-08-08T20:12:32.957Z,22.17
2022-08-08T20:15:14.561Z,22.16
2022-08-08T20:17:46.266Z,22.11
2022-08-08T20:20:19.125Z,22.07
2022-08-08T20:22:49.003Z,22.02
2022-08-08T20:25:24.745Z,22.03
2022-08-08T20:27:57.795Z,22.01
2022-08-08T20:30:52.780Z,22.00
2022-08-08T20:35:58.108Z,21.95
2022-08-08T20:38:29.256Z,21.87
2022-08-08T20:41:05.693Z,21.86
2022-08-08T20:43:48.357Z,21.85
2022-08-08T20:46:20.252Z,21.80
2022-08-08T20:48:49.084Z,21.79
2022-08-08T20:51:17.613Z,21.78
2022-08-08T20:54:00.657Z,21.78
2022-08-08T20:56:35.699Z,21.75
2022-08-08T20:59:24.745Z,21.72
2022-08-08T21:02:07.062Z,21.69
2022-08-08T21:04:37.165Z,21.70
2022-08-08T21:07:08.258Z,21.68
2022-08-08T21:10:01.354Z,21.67
2022-08-08T21:12:33.077Z,21.63
2022-08-08T21:15:07.096Z,21.55
2022-08-08T21:17:35.699Z,21.55
2022-08-08T21:20:05.514Z,21.51
2022-08-08T21:22:33.210Z,21.48
2022-08-08T21:25:02.656Z,21.44
2022-08-08T21:28:06.581Z,21.42
2022-08-08T21:30:24.693Z,21.42
2022-08-08T21:32:53.384Z,21.39
2022-08-08T21:36:14.715Z,21.40
2022-08-08T21:38:16.794Z,21.38
2022-08-08T21:40:56.491Z,21.34
2022-08-08T21:43:33.009Z,21.31
2022-08-08T21:48:08.145Z,21.32
2022-08-08T21:48:51.946Z,21.31
2022-08-08T21:54:18.297Z,21.27
2022-08-08T21:54:33.711Z,21.25
2022-08-08T21:56:59.259Z,21.24
2022-08-08T22:00:01.512Z,21.23
2022-08-08T22:02:22.801Z,21.19
2022-08-08T22:04:52.173Z,21.18
2022-08-08T22:07:19.975Z,21.09
2022-08-08T22:09:54.968Z,21.11
2022-08-08T22:12:22.704Z,21.09
2022-08-08T22:14:54.370Z,21.08
2022-08-08T22:17:22.072Z,21.07
2022-08-08T22:20:12.555Z,21.03
2022-08-08T22:22:38.732Z,21.02
2022-08-08T22:25:24.371Z,21.02
2022-08-08T22:28:02.860Z,20.96
2022-08-08T22:30:34.282Z,20.90
2022-08-08T22:33:02.643Z,20.90
2022-08-08T22:36:05.157Z,20.86
2022-08-08T22:38:24.709Z,20.83
2022-08-08T22:40:52.347Z,20.80
2022-08-08T22:43:20.132Z,20.78
2022-08-08T22:45:52.535Z,20.75
2022-08-08T22:48:21.549Z,20.70
2022-08-08T22:50:50.149Z,20.70
2022-08-08T22:54:29.622Z,20.67
2022-08-08T22:56:07.116Z,20.64
2022-08-08T22:58:35.276Z,20.61
2022-08-08T23:01:33.698Z,20.58
2022-08-08T23:03:56.832Z,20.53
2022-08-08T23:06:25.075Z,20.51
2022-08-08T23:08:58.077Z,20.50
2022-08-08T23:11:58.030Z,20.48
2022-08-08T23:14:17.175Z,20.47
2022-08-08T23:16:53.324Z,20.45
2022-08-08T23:19:27.072Z,20.40
2022-08-08T23:21:54.959Z,20.38
2022-08-08T23:24:23.695Z,20.31
2022-08-08T23:26:53.383Z,20.30
2022-08-08T23:29:24.107Z,20.27
2022-08-08T23:31:53.163Z,20.26
2022-08-08T23:34:21.927Z,20.27
2022-08-08T23:36:56.545Z,20.26
2022-08-08T23:39:26.572Z,20.24
2022-08-08T23:42:00.690Z,20.23
2022-08-08T23:44:30.042Z,20.21
2022-08-08T23:49:06.569Z,20.22
2022-08-08T23:50:02.754Z,20.21
2022-08-08T23:52:31.180Z,20.21
2022-08-08T23:55:07.259Z,20.17
2022-08-08T23:57:52.087Z,20.13
